sensor_id;sensor_type;location;lat;lon;timestamp;P1;durP1;ratioP1;P2;durP2;ratioP2
16330;SDS011;8275;48.206;16.340;2024-03-22T00:01:10;7.65;;;6.97;;
16330;SDS011;8275;48.206;16.340;2024-03-22T00:03:37;9.55;;;8.70;;
16330;SDS011;8275;48.206;16.340;2024-03-22T00:06:04;9.68;;;8.50;;
16330;SDS011;8275;48.206;16.340;2024-03-22T00:08:31;8.75;;;8.05;;
16330;SDS011;8275;48.206;16.340;2024-03-22T00:10:58;9.07;;;8.27;;
16330;SDS011;8275;48.206;16.340;2024-03-22T00:13:26;9.05;;;8.00;;
16330;SDS011;8275;48.206;16.340;2024-03-22T00:15:53;9.52;;;8.63;;
16330;SDS011;8275;48.206;16.340;2024-03-22T00:18:20;8.77;;;8.07;;
16330;SDS011;8275;48.206;16.340;2024-03-22T00:20:47;8.68;;;7.78;;
16330;SDS011;8275;48.206;16.340;2024-03-22T00:23:14;9.02;;;8.23;;
16330;SDS011;8275;48.206;16.340;2024-03-22T00:25:41;9.10;;;8.20;;
16330;SDS011;8275;48.206;16.340;2024-03-22T00:28:07;9.00;;;8.18;;
16330;SDS011;8275;48.206;16.340;2024-03-22T00:30:36;9.85;;;8.95;;
16330;SDS011;8275;48.206;16.340;2024-03-22T00:33:03;9.13;;;8.32;;
16330;SDS011;8275;48.206;16.340;2024-03-22T00:38:37;9.40;;;8.50;;
16330;SDS011;8275;48.206;16.340;2024-03-22T00:41:05;9.40;;;8.60;;
16330;SDS011;8275;48.206;16.340;2024-03-22T00:43:32;9.43;;;8.60;;
16330;SDS011;8275;48.206;16.340;2024-03-22T00:46:00;10.77;;;9.68;;
16330;SDS011;8275;48.206;16.340;2024-03-22T00:48:28;10.30;;;9.40;;
16330;SDS011;8275;48.206;16.340;2024-03-22T00:50:55;11.38;;;10.38;;
16330;SDS011;8275;48.206;16.340;2024-03-22T00:53:22;10.15;;;9.25;;
16330;SDS011;8275;48.206;16.340;2024-03-22T00:55:49;11.40;;;10.25;;
16330;SDS011;8275;48.206;16.340;2024-03-22T00:58:17;10.98;;;9.90;;
16330;SDS011;8275;48.206;16.340;2024-03-22T01:00:45;13.88;;;12.27;;
16330;SDS011;8275;48.206;16.340;2024-03-22T01:03:13;10.65;;;9.60;;
16330;SDS011;8275;48.206;16.340;2024-03-22T01:05:40;9.60;;;8.70;;
16330;SDS011;8275;48.206;16.340;2024-03-22T01:08:08;11.40;;;10.35;;
16330;SDS011;8275;48.206;16.340;2024-03-22T01:10:35;10.32;;;9.43;;
16330;SDS011;8275;48.206;16.340;2024-03-22T01:13:02;12.00;;;10.65;;
16330;SDS011;8275;48.206;16.340;2024-03-22T01:15:29;10.95;;;9.85;;
16330;SDS011;8275;48.206;16.340;2024-03-22T01:17:56;11.07;;;10.10;;
16330;SDS011;8275;48.206;16.340;2024-03-22T01:20:24;11.15;;;10.02;;
16330;SDS011;8275;48.206;16.340;2024-03-22T01:22:51;10.85;;;9.75;;
16330;SDS011;8275;48.206;16.340;2024-03-22T01:25:18;12.75;;;11.48;;
16330;SDS011;8275;48.206;16.340;2024-03-22T01:27:45;11.20;;;9.85;;
16330;SDS011;8275;48.206;16.340;2024-03-22T01:30:12;11.38;;;10.27;;
16330;SDS011;8275;48.206;16.340;2024-03-22T01:32:39;11.13;;;10.13;;
16330;SDS011;8275;48.206;16.340;2024-03-22T01:35:06;12.65;;;11.30;;
16330;SDS011;8275;48.206;16.340;2024-03-22T01:37:35;11.90;;;10.68;;
16330;SDS011;8275;48.206;16.340;2024-03-22T01:40:02;13.25;;;11.95;;
16330;SDS011;8275;48.206;16.340;2024-03-22T01:42:30;11.85;;;10.77;;
16330;SDS011;8275;48.206;16.340;2024-03-22T01:44:57;11.63;;;10.57;;
16330;SDS011;8275;48.206;16.340;2024-03-22T01:47:24;13.00;;;11.70;;
16330;SDS011;8275;48.206;16.340;2024-03-22T01:49:52;11.82;;;10.63;;
16330;SDS011;8275;48.206;16.340;2024-03-22T01:52:20;11.48;;;10.38;;
16330;SDS011;8275;48.206;16.340;2024-03-22T01:54:50;13.32;;;12.02;;
16330;SDS011;8275;48.206;16.340;2024-03-22T01:57:16;10.65;;;9.65;;
16330;SDS011;8275;48.206;16.340;2024-03-22T01:59:44;12.52;;;11.05;;
16330;SDS011;8275;48.206;16.340;2024-03-22T02:02:15;13.20;;;12.10;;
16330;SDS011;8275;48.206;16.340;2024-03-22T02:04:42;12.40;;;11.27;;
16330;SDS011;8275;48.206;16.340;2024-03-22T02:07:08;12.13;;;11.07;;
16330;SDS011;8275;48.206;16.340;2024-03-22T02:09:36;11.75;;;10.75;;
16330;SDS011;8275;48.206;16.340;2024-03-22T02:12:04;13.32;;;11.93;;
16330;SDS011;8275;48.206;16.340;2024-03-22T02:14:32;14.10;;;11.77;;
16330;SDS011;8275;48.206;16.340;2024-03-22T02:16:58;13.48;;;12.25;;
16330;SDS011;8275;48.206;16.340;2024-03-22T02:19:25;13.35;;;12.05;;
16330;SDS011;8275;48.206;16.340;2024-03-22T02:21:52;13.30;;;12.07;;
16330;SDS011;8275;48.206;16.340;2024-03-22T02:24:20;11.75;;;10.48;;
16330;SDS011;8275;48.206;16.340;2024-03-22T02:26:47;13.13;;;11.82;;
16330;SDS011;8275;48.206;16.340;2024-03-22T02:29:14;13.27;;;12.07;;
16330;SDS011;8275;48.206;16.340;2024-03-22T02:31:41;12.45;;;11.35;;
16330;SDS011;8275;48.206;16.340;2024-03-22T02:34:08;12.13;;;11.02;;
16330;SDS011;8275;48.206;16.340;2024-03-22T02:36:34;15.07;;;13.57;;
16330;SDS011;8275;48.206;16.340;2024-03-22T02:39:02;13.30;;;12.00;;
16330;SDS011;8275;48.206;16.340;2024-03-22T02:41:31;13.73;;;12.50;;
16330;SDS011;8275;48.206;16.340;2024-03-22T02:43:58;13.95;;;12.52;;
16330;SDS011;8275;48.206;16.340;2024-03-22T02:46:25;11.65;;;10.35;;
16330;SDS011;8275;48.206;16.340;2024-03-22T02:48:52;13.43;;;12.02;;
16330;SDS011;8275;48.206;16.340;2024-03-22T02:51:18;13.07;;;11.85;;
16330;SDS011;8275;48.206;16.340;2024-03-22T02:53:46;13.07;;;11.77;;
16330;SDS011;8275;48.206;16.340;2024-03-22T02:56:13;14.60;;;13.20;;
16330;SDS011;8275;48.206;16.340;2024-03-22T02:58:42;14.23;;;12.82;;
16330;SDS011;8275;48.206;16.340;2024-03-22T03:01:08;14.20;;;12.88;;
16330;SDS011;8275;48.206;16.340;2024-03-22T03:03:35;13.10;;;11.48;;
16330;SDS011;8275;48.206;16.340;2024-03-22T03:06:02;12.88;;;11.68;;
16330;SDS011;8275;48.206;16.340;2024-03-22T03:08:30;14.32;;;12.93;;
16330;SDS011;8275;48.206;16.340;2024-03-22T03:10:56;12.85;;;11.57;;
16330;SDS011;8275;48.206;16.340;2024-03-22T03:13:24;13.30;;;12.13;;
16330;SDS011;8275;48.206;16.340;2024-03-22T03:15:52;13.38;;;12.15;;
16330;SDS011;8275;48.206;16.340;2024-03-22T03:18:20;14.52;;;13.07;;
16330;SDS011;8275;48.206;16.340;2024-03-22T03:20:46;13.75;;;12.38;;
16330;SDS011;8275;48.206;16.340;2024-03-22T03:23:14;13.23;;;11.93;;
16330;SDS011;8275;48.206;16.340;2024-03-22T03:25:40;12.85;;;11.63;;
16330;SDS011;8275;48.206;16.340;2024-03-22T03:28:08;13.43;;;12.13;;
16330;SDS011;8275;48.206;16.340;2024-03-22T03:30:34;13.15;;;11.77;;
16330;SDS011;8275;48.206;16.340;2024-03-22T03:33:03;14.48;;;13.00;;
16330;SDS011;8275;48.206;16.340;2024-03-22T03:35:30;17.90;;;11.63;;
16330;SDS011;8275;48.206;16.340;2024-03-22T03:37:57;13.13;;;11.90;;
16330;SDS011;8275;48.206;16.340;2024-03-22T03:40:24;15.38;;;13.90;;
16330;SDS011;8275;48.206;16.340;2024-03-22T03:42:53;14.43;;;13.02;;
16330;SDS011;8275;48.206;16.340;2024-03-22T03:45:19;13.13;;;11.82;;
16330;SDS011;8275;48.206;16.340;2024-03-22T03:47:47;12.23;;;11.02;;
16330;SDS011;8275;48.206;16.340;2024-03-22T03:50:15;13.93;;;12.32;;
16330;SDS011;8275;48.206;16.340;2024-03-22T03:52:42;13.35;;;11.68;;
16330;SDS011;8275;48.206;16.340;2024-03-22T03:55:09;13.80;;;12.40;;
16330;SDS011;8275;48.206;16.340;2024-03-22T03:57:36;12.10;;;10.93;;
16330;SDS011;8275;48.206;16.340;2024-03-22T04:00:02;13.57;;;11.13;;
16330;SDS011;8275;48.206;16.340;2024-03-22T04:02:31;14.50;;;13.07;;
16330;SDS011;8275;48.206;16.340;2024-03-22T04:04:57;11.52;;;10.48;;
16330;SDS011;8275;48.206;16.340;2024-03-22T04:07:26;12.90;;;11.70;;
16330;SDS011;8275;48.206;16.340;2024-03-22T04:09:54;13.85;;;12.23;;
16330;SDS011;8275;48.206;16.340;2024-03-22T04:12:21;14.02;;;12.52;;
16330;SDS011;8275;48.206;16.340;2024-03-22T04:14:48;12.77;;;11.65;;
16330;SDS011;8275;48.206;16.340;2024-03-22T04:17:15;12.13;;;10.90;;
16330;SDS011;8275;48.206;16.340;2024-03-22T04:19:41;12.95;;;11.75;;
16330;SDS011;8275;48.206;16.340;2024-03-22T04:22:09;12.27;;;11.02;;
16330;SDS011;8275;48.206;16.340;2024-03-22T04:24:36;13.52;;;11.70;;
16330;SDS011;8275;48.206;16.340;2024-03-22T04:27:04;11.98;;;10.68;;
16330;SDS011;8275;48.206;16.340;2024-03-22T04:29:30;14.23;;;12.88;;
16330;SDS011;8275;48.206;16.340;2024-03-22T04:31:58;14.98;;;12.63;;
16330;SDS011;8275;48.206;16.340;2024-03-22T04:34:24;11.52;;;10.43;;
16330;SDS011;8275;48.206;16.340;2024-03-22T04:36:51;14.20;;;12.80;;
16330;SDS011;8275;48.206;16.340;2024-03-22T04:39:19;15.52;;;13.45;;
16330;SDS011;8275;48.206;16.340;2024-03-22T04:41:48;11.40;;;10.38;;
16330;SDS011;8275;48.206;16.340;2024-03-22T04:44:15;14.48;;;13.10;;
16330;SDS011;8275;48.206;16.340;2024-03-22T04:46:41;15.65;;;12.93;;
16330;SDS011;8275;48.206;16.340;2024-03-22T04:49:09;13.80;;;12.40;;
16330;SDS011;8275;48.206;16.340;2024-03-22T04:51:35;13.35;;;11.98;;
16330;SDS011;8275;48.206;16.340;2024-03-22T04:54:03;13.13;;;11.82;;
16330;SDS011;8275;48.206;16.340;2024-03-22T04:56:29;12.85;;;11.65;;
16330;SDS011;8275;48.206;16.340;2024-03-22T04:58:58;13.07;;;11.68;;
16330;SDS011;8275;48.206;16.340;2024-03-22T05:01:24;14.70;;;11.55;;
16330;SDS011;8275;48.206;16.340;2024-03-22T05:03:52;14.85;;;13.20;;
16330;SDS011;8275;48.206;16.340;2024-03-22T05:06:19;12.82;;;11.63;;
16330;SDS011;8275;48.206;16.340;2024-03-22T05:08:46;12.07;;;10.88;;
16330;SDS011;8275;48.206;16.340;2024-03-22T05:11:13;14.80;;;11.60;;
16330;SDS011;8275;48.206;16.340;2024-03-22T05:13:40;11.85;;;10.75;;
16330;SDS011;8275;48.206;16.340;2024-03-22T05:16:08;11.90;;;10.73;;
16330;SDS011;8275;48.206;16.340;2024-03-22T05:18:36;12.70;;;11.50;;
16330;SDS011;8275;48.206;16.340;2024-03-22T05:21:03;12.82;;;11.65;;
16330;SDS011;8275;48.206;16.340;2024-03-22T05:23:31;12.07;;;10.98;;
16330;SDS011;8275;48.206;16.340;2024-03-22T05:25:57;11.88;;;10.68;;
16330;SDS011;8275;48.206;16.340;2024-03-22T05:28:25;11.57;;;10.25;;
16330;SDS011;8275;48.206;16.340;2024-03-22T05:30:51;13.38;;;11.85;;
16330;SDS011;8275;48.206;16.340;2024-03-22T05:33:20;12.95;;;11.70;;
16330;SDS011;8275;48.206;16.340;2024-03-22T05:35:46;11.57;;;9.70;;
16330;SDS011;8275;48.206;16.340;2024-03-22T05:38:14;10.55;;;9.57;;
16330;SDS011;8275;48.206;16.340;2024-03-22T05:40:40;11.57;;;10.50;;
16330;SDS011;8275;48.206;16.340;2024-03-22T05:43:08;12.10;;;9.93;;
16330;SDS011;8275;48.206;16.340;2024-03-22T05:45:34;11.25;;;10.00;;
16330;SDS011;8275;48.206;16.340;2024-03-22T05:48:02;12.52;;;9.65;;
16330;SDS011;8275;48.206;16.340;2024-03-22T05:50:30;12.30;;;11.00;;
16330;SDS011;8275;48.206;16.340;2024-03-22T05:52:58;12.60;;;11.35;;
16330;SDS011;8275;48.206;16.340;2024-03-22T05:55:24;12.77;;;11.48;;
16330;SDS011;8275;48.206;16.340;2024-03-22T05:57:52;14.10;;;12.70;;
16330;SDS011;8275;48.206;16.340;2024-03-22T06:00:19;14.75;;;13.25;;
16330;SDS011;8275;48.206;16.340;2024-03-22T06:02:47;14.45;;;13.02;;
16330;SDS011;8275;48.206;16.340;2024-03-22T06:05:13;13.27;;;11.70;;
16330;SDS011;8275;48.206;16.340;2024-03-22T06:07:44;16.63;;;14.85;;
16330;SDS011;8275;48.206;16.340;2024-03-22T06:10:11;15.80;;;14.30;;
16330;SDS011;8275;48.206;16.340;2024-03-22T06:12:38;17.00;;;15.13;;
16330;SDS011;8275;48.206;16.340;2024-03-22T06:15:06;17.23;;;15.50;;
16330;SDS011;8275;48.206;16.340;2024-03-22T06:17:34;18.70;;;14.43;;
16330;SDS011;8275;48.206;16.340;2024-03-22T06:20:01;17.38;;;15.57;;
16330;SDS011;8275;48.206;16.340;2024-03-22T06:22:30;16.75;;;15.02;;
16330;SDS011;8275;48.206;16.340;2024-03-22T06:24:57;16.02;;;14.43;;
16330;SDS011;8275;48.206;16.340;2024-03-22T06:27:25;17.63;;;15.82;;
16330;SDS011;8275;48.206;16.340;2024-03-22T06:29:51;16.17;;;14.48;;
16330;SDS011;8275;48.206;16.340;2024-03-22T06:32:18;16.83;;;15.20;;
16330;SDS011;8275;48.206;16.340;2024-03-22T06:34:45;16.70;;;15.10;;
16330;SDS011;8275;48.206;16.340;2024-03-22T06:37:12;16.35;;;14.50;;
16330;SDS011;8275;48.206;16.340;2024-03-22T06:39:39;18.50;;;16.10;;
16330;SDS011;8275;48.206;16.340;2024-03-22T06:42:07;15.57;;;13.90;;
16330;SDS011;8275;48.206;16.340;2024-03-22T06:44:34;18.42;;;16.45;;
16330;SDS011;8275;48.206;16.340;2024-03-22T06:47:01;14.90;;;13.40;;
16330;SDS011;8275;48.206;16.340;2024-03-22T06:49:28;17.65;;;14.80;;
16330;SDS011;8275;48.206;16.340;2024-03-22T06:51:55;15.55;;;14.05;;
16330;SDS011;8275;48.206;16.340;2024-03-22T06:54:22;15.25;;;13.77;;
16330;SDS011;8275;48.206;16.340;2024-03-22T06:56:49;18.38;;;15.57;;
16330;SDS011;8275;48.206;16.340;2024-03-22T06:59:17;15.35;;;13.73;;
16330;SDS011;8275;48.206;16.340;2024-03-22T07:01:45;17.05;;;15.32;;
16330;SDS011;8275;48.206;16.340;2024-03-22T07:04:11;16.75;;;14.95;;
16330;SDS011;8275;48.206;16.340;2024-03-22T07:06:39;16.67;;;14.80;;
16330;SDS011;8275;48.206;16.340;2024-03-22T07:09:07;17.33;;;15.55;;
16330;SDS011;8275;48.206;16.340;2024-03-22T07:11:34;18.92;;;15.32;;
16330;SDS011;8275;48.206;16.340;2024-03-22T07:14:01;23.65;;;14.55;;
16330;SDS011;8275;48.206;16.340;2024-03-22T07:16:30;16.63;;;14.93;;
16330;SDS011;8275;48.206;16.340;2024-03-22T07:18:56;17.25;;;15.55;;
16330;SDS011;8275;48.206;16.340;2024-03-22T07:21:23;16.60;;;14.90;;
16330;SDS011;8275;48.206;16.340;2024-03-22T07:23:50;16.02;;;14.45;;
16330;SDS011;8275;48.206;16.340;2024-03-22T07:26:17;21.10;;;15.75;;
16330;SDS011;8275;48.206;16.340;2024-03-22T07:28:43;17.95;;;15.88;;
16330;SDS011;8275;48.206;16.340;2024-03-22T07:31:11;17.33;;;15.43;;
16330;SDS011;8275;48.206;16.340;2024-03-22T07:33:39;22.25;;;16.25;;
16330;SDS011;8275;48.206;16.340;2024-03-22T07:36:07;18.38;;;15.20;;
16330;SDS011;8275;48.206;16.340;2024-03-22T07:38:33;18.10;;;16.20;;
16330;SDS011;8275;48.206;16.340;2024-03-22T07:41:01;18.52;;;16.58;;
16330;SDS011;8275;48.206;16.340;2024-03-22T07:43:27;17.67;;;15.63;;
16330;SDS011;8275;48.206;16.340;2024-03-22T07:45:54;17.85;;;15.73;;
16330;SDS011;8275;48.206;16.340;2024-03-22T07:48:21;21.17;;;16.38;;
16330;SDS011;8275;48.206;16.340;2024-03-22T07:50:56;19.17;;;17.15;;
16330;SDS011;8275;48.206;16.340;2024-03-22T07:53:23;24.08;;;15.55;;
16330;SDS011;8275;48.206;16.340;2024-03-22T07:55:51;16.45;;;14.85;;
16330;SDS011;8275;48.206;16.340;2024-03-22T07:58:17;16.58;;;14.85;;
16330;SDS011;8275;48.206;16.340;2024-03-22T08:00:46;18.25;;;16.45;;
16330;SDS011;8275;48.206;16.340;2024-03-22T08:03:14;17.25;;;15.55;;
16330;SDS011;8275;48.206;16.340;2024-03-22T08:05:43;19.00;;;17.00;;
16330;SDS011;8275;48.206;16.340;2024-03-22T08:08:11;17.20;;;15.43;;
16330;SDS011;8275;48.206;16.340;2024-03-22T08:10:38;16.65;;;14.93;;
16330;SDS011;8275;48.206;16.340;2024-03-22T08:13:04;17.70;;;15.45;;
16330;SDS011;8275;48.206;16.340;2024-03-22T08:15:33;20.65;;;17.13;;
16330;SDS011;8275;48.206;16.340;2024-03-22T08:18:01;20.10;;;18.02;;
16330;SDS011;8275;48.206;16.340;2024-03-22T08:20:28;25.08;;;17.67;;
16330;SDS011;8275;48.206;16.340;2024-03-22T08:22:55;22.45;;;19.80;;
16330;SDS011;8275;48.206;16.340;2024-03-22T08:25:24;20.50;;;18.27;;
16330;SDS011;8275;48.206;16.340;2024-03-22T08:27:50;15.65;;;14.15;;
16330;SDS011;8275;48.206;16.340;2024-03-22T08:30:20;16.25;;;14.55;;
16330;SDS011;8275;48.206;16.340;2024-03-22T08:32:47;16.88;;;14.98;;
16330;SDS011;8275;48.206;16.340;2024-03-22T08:35:14;19.27;;;16.25;;
16330;SDS011;8275;48.206;16.340;2024-03-22T08:37:41;17.73;;;15.93;;
16330;SDS011;8275;48.206;16.340;2024-03-22T08:40:09;18.25;;;15.00;;
16330;SDS011;8275;48.206;16.340;2024-03-22T08:42:39;16.40;;;14.65;;
16330;SDS011;8275;48.206;16.340;2024-03-22T08:45:07;17.23;;;14.70;;
16330;SDS011;8275;48.206;16.340;2024-03-22T08:47:35;14.43;;;12.98;;
16330;SDS011;8275;48.206;16.340;2024-03-22T08:50:03;16.88;;;14.07;;
16330;SDS011;8275;48.206;16.340;2024-03-22T08:52:30;16.38;;;14.68;;
16330;SDS011;8275;48.206;16.340;2024-03-22T08:54:59;17.63;;;15.27;;
16330;SDS011;8275;48.206;16.340;2024-03-22T08:57:25;17.63;;;15.70;;
16330;SDS011;8275;48.206;16.340;2024-03-22T08:59:55;16.38;;;14.68;;
16330;SDS011;8275;48.206;16.340;2024-03-22T09:02:21;16.15;;;14.45;;
16330;SDS011;8275;48.206;16.340;2024-03-22T09:04:48;15.77;;;13.68;;
16330;SDS011;8275;48.206;16.340;2024-03-22T09:07:15;14.60;;;13.02;;
16330;SDS011;8275;48.206;16.340;2024-03-22T09:09:43;14.07;;;12.68;;
16330;SDS011;8275;48.206;16.340;2024-03-22T09:12:09;15.95;;;14.25;;
16330;SDS011;8275;48.206;16.340;2024-03-22T09:14:36;15.73;;;14.00;;
16330;SDS011;8275;48.206;16.340;2024-03-22T09:17:04;24.98;;;16.30;;
16330;SDS011;8275;48.206;16.340;2024-03-22T09:19:36;13.32;;;12.07;;
16330;SDS011;8275;48.206;16.340;2024-03-22T09:22:15;15.75;;;14.20;;
16330;SDS011;8275;48.206;16.340;2024-03-22T09:24:42;16.58;;;14.55;;
16330;SDS011;8275;48.206;16.340;2024-03-22T09:27:08;14.68;;;12.65;;
16330;SDS011;8275;48.206;16.340;2024-03-22T09:29:36;15.25;;;13.15;;
16330;SDS011;8275;48.206;16.340;2024-03-22T09:32:04;17.83;;;14.40;;
16330;SDS011;8275;48.206;16.340;2024-03-22T09:34:32;15.77;;;12.40;;
16330;SDS011;8275;48.206;16.340;2024-03-22T09:36:59;15.43;;;13.75;;
16330;SDS011;8275;48.206;16.340;2024-03-22T09:39:26;14.23;;;12.23;;
16330;SDS011;8275;48.206;16.340;2024-03-22T09:41:56;13.05;;;11.65;;
16330;SDS011;8275;48.206;16.340;2024-03-22T09:44:25;14.48;;;12.00;;
16330;SDS011;8275;48.206;16.340;2024-03-22T09:46:53;11.52;;;10.32;;
16330;SDS011;8275;48.206;16.340;2024-03-22T09:49:22;12.63;;;11.32;;
16330;SDS011;8275;48.206;16.340;2024-03-22T09:51:50;12.02;;;10.82;;
16330;SDS011;8275;48.206;16.340;2024-03-22T09:54:18;15.10;;;12.00;;
16330;SDS011;8275;48.206;16.340;2024-03-22T09:56:45;12.25;;;11.05;;
16330;SDS011;8275;48.206;16.340;2024-03-22T09:59:17;13.07;;;10.57;;
16330;SDS011;8275;48.206;16.340;2024-03-22T10:01:43;13.20;;;10.25;;
16330;SDS011;8275;48.206;16.340;2024-03-22T10:04:12;12.40;;;10.73;;
16330;SDS011;8275;48.206;16.340;2024-03-22T10:06:40;11.98;;;10.88;;
16330;SDS011;8275;48.206;16.340;2024-03-22T10:09:07;10.50;;;9.40;;
16330;SDS011;8275;48.206;16.340;2024-03-22T10:11:34;12.95;;;11.70;;
16330;SDS011;8275;48.206;16.340;2024-03-22T10:14:02;10.80;;;9.73;;
16330;SDS011;8275;48.206;16.340;2024-03-22T10:16:32;12.35;;;11.05;;
16330;SDS011;8275;48.206;16.340;2024-03-22T10:19:01;11.13;;;10.02;;
16330;SDS011;8275;48.206;16.340;2024-03-22T10:21:27;11.50;;;10.38;;
16330;SDS011;8275;48.206;16.340;2024-03-22T10:23:58;10.43;;;9.05;;
16330;SDS011;8275;48.206;16.340;2024-03-22T10:26:24;13.65;;;11.07;;
16330;SDS011;8275;48.206;16.340;2024-03-22T10:28:51;10.45;;;9.45;;
16330;SDS011;8275;48.206;16.340;2024-03-22T10:31:18;10.85;;;9.75;;
16330;SDS011;8275;48.206;16.340;2024-03-22T10:33:47;10.18;;;9.18;;
16330;SDS011;8275;48.206;16.340;2024-03-22T10:36:14;10.68;;;9.50;;
16330;SDS011;8275;48.206;16.340;2024-03-22T10:38:43;11.43;;;9.60;;
16330;SDS011;8275;48.206;16.340;2024-03-22T10:41:12;9.60;;;8.65;;
16330;SDS011;8275;48.206;16.340;2024-03-22T10:43:40;10.85;;;8.38;;
16330;SDS011;8275;48.206;16.340;2024-03-22T10:46:06;9.95;;;8.95;;
16330;SDS011;8275;48.206;16.340;2024-03-22T10:48:36;13.55;;;10.82;;
16330;SDS011;8275;48.206;16.340;2024-03-22T10:51:04;9.38;;;8.48;;
16330;SDS011;8275;48.206;16.340;2024-03-22T10:53:33;10.32;;;8.88;;
16330;SDS011;8275;48.206;16.340;2024-03-22T10:56:01;9.73;;;8.82;;
16330;SDS011;8275;48.206;16.340;2024-03-22T10:58:31;8.30;;;7.50;;
16330;SDS011;8275;48.206;16.340;2024-03-22T11:00:57;9.20;;;8.35;;
16330;SDS011;8275;48.206;16.340;2024-03-22T11:03:25;8.20;;;7.28;;
16330;SDS011;8275;48.206;16.340;2024-03-22T11:05:54;12.27;;;8.88;;
16330;SDS011;8275;48.206;16.340;2024-03-22T11:08:23;12.02;;;8.73;;
16330;SDS011;8275;48.206;16.340;2024-03-22T11:10:51;10.02;;;9.02;;
16330;SDS011;8275;48.206;16.340;2024-03-22T11:13:19;9.60;;;7.93;;
16330;SDS011;8275;48.206;16.340;2024-03-22T11:15:48;9.82;;;8.93;;
16330;SDS011;8275;48.206;16.340;2024-03-22T11:18:16;10.68;;;9.57;;
16330;SDS011;8275;48.206;16.340;2024-03-22T11:20:43;9.15;;;8.20;;
16330;SDS011;8275;48.206;16.340;2024-03-22T11:23:11;8.43;;;7.63;;
16330;SDS011;8275;48.206;16.340;2024-03-22T11:25:38;10.93;;;9.93;;
16330;SDS011;8275;48.206;16.340;2024-03-22T11:28:06;9.23;;;8.43;;
16330;SDS011;8275;48.206;16.340;2024-03-22T11:30:32;9.18;;;7.90;;
16330;SDS011;8275;48.206;16.340;2024-03-22T11:33:02;8.45;;;7.68;;
16330;SDS011;8275;48.206;16.340;2024-03-22T11:35:30;9.90;;;8.63;;
16330;SDS011;8275;48.206;16.340;2024-03-22T11:37:59;8.48;;;7.78;;
16330;SDS011;8275;48.206;16.340;2024-03-22T11:40:26;10.30;;;8.77;;
16330;SDS011;8275;48.206;16.340;2024-03-22T11:42:55;10.80;;;9.43;;
16330;SDS011;8275;48.206;16.340;2024-03-22T11:45:24;8.95;;;8.05;;
16330;SDS011;8275;48.206;16.340;2024-03-22T11:47:53;10.43;;;8.02;;
16330;SDS011;8275;48.206;16.340;2024-03-22T11:50:22;9.80;;;7.90;;
16330;SDS011;8275;48.206;16.340;2024-03-22T11:52:48;12.73;;;5.97;;
16330;SDS011;8275;48.206;16.340;2024-03-22T11:55:16;8.07;;;7.28;;
16330;SDS011;8275;48.206;16.340;2024-03-22T11:57:47;7.88;;;6.50;;
16330;SDS011;8275;48.206;16.340;2024-03-22T12:00:16;7.28;;;6.57;;
16330;SDS011;8275;48.206;16.340;2024-03-22T12:02:44;7.75;;;7.07;;
16330;SDS011;8275;48.206;16.340;2024-03-22T12:05:12;12.35;;;8.20;;
16330;SDS011;8275;48.206;16.340;2024-03-22T12:07:41;9.75;;;6.93;;
16330;SDS011;8275;48.206;16.340;2024-03-22T12:10:08;7.70;;;6.85;;
16330;SDS011;8275;48.206;16.340;2024-03-22T12:12:34;9.35;;;7.88;;
16330;SDS011;8275;48.206;16.340;2024-03-22T12:15:03;7.07;;;6.38;;
16330;SDS011;8275;48.206;16.340;2024-03-22T12:17:30;7.68;;;6.82;;
16330;SDS011;8275;48.206;16.340;2024-03-22T12:19:58;7.20;;;6.60;;
16330;SDS011;8275;48.206;16.340;2024-03-22T12:22:25;6.88;;;6.28;;
16330;SDS011;8275;48.206;16.340;2024-03-22T12:24:54;7.43;;;6.72;;
16330;SDS011;8275;48.206;16.340;2024-03-22T12:27:20;7.50;;;6.78;;
16330;SDS011;8275;48.206;16.340;2024-03-22T12:29:47;9.13;;;6.82;;
16330;SDS011;8275;48.206;16.340;2024-03-22T12:32:14;8.07;;;7.32;;
16330;SDS011;8275;48.206;16.340;2024-03-22T12:34:41;8.02;;;6.55;;
16330;SDS011;8275;48.206;16.340;2024-03-22T12:37:08;7.43;;;6.72;;
16330;SDS011;8275;48.206;16.340;2024-03-22T12:39:36;7.30;;;6.30;;
16330;SDS011;8275;48.206;16.340;2024-03-22T12:42:04;6.85;;;6.20;;
16330;SDS011;8275;48.206;16.340;2024-03-22T12:44:32;8.52;;;6.35;;
16330;SDS011;8275;48.206;16.340;2024-03-22T12:46:58;6.68;;;5.88;;
16330;SDS011;8275;48.206;16.340;2024-03-22T12:49:26;10.77;;;5.93;;
16330;SDS011;8275;48.206;16.340;2024-03-22T12:51:52;6.97;;;5.90;;
16330;SDS011;8275;48.206;16.340;2024-03-22T12:54:19;9.38;;;8.05;;
16330;SDS011;8275;48.206;16.340;2024-03-22T12:56:46;13.23;;;7.70;;
16330;SDS011;8275;48.206;16.340;2024-03-22T12:59:15;7.38;;;6.63;;
16330;SDS011;8275;48.206;16.340;2024-03-22T13:01:42;6.93;;;6.22;;
16330;SDS011;8275;48.206;16.340;2024-03-22T13:04:10;11.00;;;6.85;;
16330;SDS011;8275;48.206;16.340;2024-03-22T13:06:36;6.25;;;5.65;;
16330;SDS011;8275;48.206;16.340;2024-03-22T13:09:04;6.22;;;5.63;;
16330;SDS011;8275;48.206;16.340;2024-03-22T13:11:31;6.28;;;5.25;;
16330;SDS011;8275;48.206;16.340;2024-03-22T13:13:58;7.43;;;6.45;;
16330;SDS011;8275;48.206;16.340;2024-03-22T13:16:27;7.90;;;5.18;;
16330;SDS011;8275;48.206;16.340;2024-03-22T13:18:55;6.68;;;5.93;;
16330;SDS011;8275;48.206;16.340;2024-03-22T13:21:21;9.43;;;6.40;;
16330;SDS011;8275;48.206;16.340;2024-03-22T13:23:48;5.35;;;4.95;;
16330;SDS011;8275;48.206;16.340;2024-03-22T13:26:15;9.35;;;6.20;;
16330;SDS011;8275;48.206;16.340;2024-03-22T13:28:42;5.45;;;4.95;;
16330;SDS011;8275;48.206;16.340;2024-03-22T13:31:09;6.60;;;5.90;;
16330;SDS011;8275;48.206;16.340;2024-03-22T13:33:37;6.65;;;6.05;;
16330;SDS011;8275;48.206;16.340;2024-03-22T13:36:04;8.30;;;6.53;;
16330;SDS011;8275;48.206;16.340;2024-03-22T13:38:31;6.10;;;4.82;;
16330;SDS011;8275;48.206;16.340;2024-03-22T13:40:58;6.55;;;5.05;;
16330;SDS011;8275;48.206;16.340;2024-03-22T13:43:29;7.32;;;5.22;;
16330;SDS011;8275;48.206;16.340;2024-03-22T13:45:55;8.63;;;4.65;;
16330;SDS011;8275;48.206;16.340;2024-03-22T13:48:23;6.05;;;5.28;;
16330;SDS011;8275;48.206;16.340;2024-03-22T13:50:52;6.30;;;5.75;;
16330;SDS011;8275;48.206;16.340;2024-03-22T13:53:21;5.88;;;5.28;;
16330;SDS011;8275;48.206;16.340;2024-03-22T13:55:48;5.32;;;4.82;;
16330;SDS011;8275;48.206;16.340;2024-03-22T13:58:16;6.47;;;5.18;;
16330;SDS011;8275;48.206;16.340;2024-03-22T14:00:43;5.32;;;4.82;;
16330;SDS011;8275;48.206;16.340;2024-03-22T14:03:11;7.28;;;5.85;;
16330;SDS011;8275;48.206;16.340;2024-03-22T14:05:37;6.28;;;5.68;;
16330;SDS011;8275;48.206;16.340;2024-03-22T14:08:06;6.80;;;5.03;;
16330;SDS011;8275;48.206;16.340;2024-03-22T14:10:33;4.53;;;4.13;;
16330;SDS011;8275;48.206;16.340;2024-03-22T14:13:00;4.22;;;3.78;;
16330;SDS011;8275;48.206;16.340;2024-03-22T14:15:27;5.07;;;4.57;;
16330;SDS011;8275;48.206;16.340;2024-03-22T14:17:57;5.80;;;4.68;;
16330;SDS011;8275;48.206;16.340;2024-03-22T14:20:23;5.50;;;5.00;;
16330;SDS011;8275;48.206;16.340;2024-03-22T14:22:51;5.93;;;5.43;;
16330;SDS011;8275;48.206;16.340;2024-03-22T14:25:19;5.18;;;4.78;;
16330;SDS011;8275;48.206;16.340;2024-03-22T14:27:47;5.78;;;5.20;;
16330;SDS011;8275;48.206;16.340;2024-03-22T14:30:14;4.97;;;4.57;;
16330;SDS011;8275;48.206;16.340;2024-03-22T14:32:43;7.15;;;4.50;;
16330;SDS011;8275;48.206;16.340;2024-03-22T14:35:09;11.70;;;4.97;;